sensor_id;sensor_type;location;lat;lon;timestamp;P1;durP1;ratioP1;P2;durP2;ratioP2
82464;SDS011;72087;53.178;8.738;2023-10-09T00:08:19;0.03;;;0.03;;
82464;SDS011;72087;53.178;8.738;2023-10-09T00:21:50;0.10;;;0.10;;
82464;SDS011;72087;53.178;8.738;2023-10-09T00:35:14;0.15;;;0.15;;
82464;SDS011;72087;53.178;8.738;2023-10-09T00:48:54;0.00;;;0.00;;
82464;SDS011;72087;53.178;8.738;2023-10-09T01:02:16;0.75;;;0.22;;
82464;SDS011;72087;53.178;8.738;2023-10-09T01:15:39;0.00;;;0.00;;
82464;SDS011;72087;53.178;8.738;2023-10-09T01:29:04;0.17;;;0.03;;
82464;SDS011;72087;53.178;8.738;2023-10-09T01:42:30;0.10;;;0.10;;
82464;SDS011;72087;53.178;8.738;2023-10-09T01:55:51;0.10;;;0.10;;
82464;SDS011;72087;53.178;8.738;2023-10-09T02:09:15;0.10;;;0.10;;
82464;SDS011;72087;53.178;8.738;2023-10-09T02:22:42;0.05;;;0.03;;
82464;SDS011;72087;53.178;8.738;2023-10-09T02:36:03;0.00;;;0.00;;
82464;SDS011;72087;53.178;8.738;2023-10-09T02:50:01;0.00;;;0.00;;
82464;SDS011;72087;53.178;8.738;2023-10-09T03:03:27;0.20;;;0.20;;
82464;SDS011;72087;53.178;8.738;2023-10-09T03:16:48;0.20;;;0.10;;
82464;SDS011;72087;53.178;8.738;2023-10-09T03:30:09;0.25;;;0.25;;
82464;SDS011;72087;53.178;8.738;2023-10-09T03:43:35;0.20;;;0.20;;
82464;SDS011;72087;53.178;8.738;2023-10-09T03:57:00;0.10;;;0.10;;
82464;SDS011;72087;53.178;8.738;2023-10-09T04:10:21;0.15;;;0.10;;
82464;SDS011;72087;53.178;8.738;2023-10-09T04:24:04;0.20;;;0.20;;
82464;SDS011;72087;53.178;8.738;2023-10-09T04:37:34;0.15;;;0.15;;
82464;SDS011;72087;53.178;8.738;2023-10-09T04:51:00;0.30;;;0.20;;
82464;SDS011;72087;53.178;8.738;2023-10-09T05:04:39;0.10;;;0.10;;
82464;SDS011;72087;53.178;8.738;2023-10-09T05:18:01;0.28;;;0.20;;
82464;SDS011;72087;53.178;8.738;2023-10-09T05:31:29;0.60;;;0.50;;
82464;SDS011;72087;53.178;8.738;2023-10-09T05:45:16;0.70;;;0.35;;
82464;SDS011;72087;53.178;8.738;2023-10-09T05:58:55;1.60;;;0.70;;
82464;SDS011;72087;53.178;8.738;2023-10-09T06:12:34;0.65;;;0.52;;
82464;SDS011;72087;53.178;8.738;2023-10-09T06:26:04;1.52;;;1.02;;
82464;SDS011;72087;53.178;8.738;2023-10-09T06:39:44;1.23;;;0.77;;
82464;SDS011;72087;53.178;8.738;2023-10-09T06:53:10;1.13;;;0.70;;
82464;SDS011;72087;53.178;8.738;2023-10-09T07:06:30;1.60;;;0.70;;
82464;SDS011;72087;53.178;8.738;2023-10-09T07:19:57;1.58;;;0.88;;
82464;SDS011;72087;53.178;8.738;2023-10-09T07:33:28;1.02;;;0.60;;
82464;SDS011;72087;53.178;8.738;2023-10-09T07:47:11;2.15;;;1.05;;
82464;SDS011;72087;53.178;8.738;2023-10-09T08:00:39;2.40;;;1.05;;
82464;SDS011;72087;53.178;8.738;2023-10-09T08:14:18;0.75;;;0.70;;
82464;SDS011;72087;53.178;8.738;2023-10-09T08:27:54;1.83;;;0.88;;
82464;SDS011;72087;53.178;8.738;2023-10-09T08:41:40;3.60;;;1.10;;
82464;SDS011;72087;53.178;8.738;2023-10-09T08:55:00;0.87;;;0.57;;
82464;SDS011;72087;53.178;8.738;2023-10-09T09:08:22;0.98;;;0.57;;
82464;SDS011;72087;53.178;8.738;2023-10-09T09:21:49;0.70;;;0.60;;
82464;SDS011;72087;53.178;8.738;2023-10-09T09:35:14;1.08;;;0.60;;
82464;SDS011;72087;53.178;8.738;2023-10-09T09:48:39;1.58;;;0.60;;
82464;SDS011;72087;53.178;8.738;2023-10-09T10:02:04;0.68;;;0.40;;
82464;SDS011;72087;53.178;8.738;2023-10-09T10:29:22;0.77;;;0.77;;
82464;SDS011;72087;53.178;8.738;2023-10-09T10:42:49;0.47;;;0.30;;
82464;SDS011;72087;53.178;8.738;2023-10-09T10:56:29;0.30;;;0.30;;
82464;SDS011;72087;53.178;8.738;2023-10-09T11:09:58;0.38;;;0.30;;
82464;SDS011;72087;53.178;8.738;2023-10-09T11:23:24;0.30;;;0.30;;
82464;SDS011;72087;53.178;8.738;2023-10-09T11:36:55;0.30;;;0.30;;
82464;SDS011;72087;53.178;8.738;2023-10-09T11:50:17;0.52;;;0.20;;
82464;SDS011;72087;53.178;8.738;2023-10-09T12:03:37;0.25;;;0.10;;
82464;SDS011;72087;53.178;8.738;2023-10-09T12:16:59;0.10;;;0.10;;
82464;SDS011;72087;53.178;8.738;2023-10-09T12:30:25;0.10;;;0.00;;
82464;SDS011;72087;53.178;8.738;2023-10-09T12:43:48;0.10;;;0.10;;
82464;SDS011;72087;53.178;8.738;2023-10-09T13:11:38;0.15;;;0.10;;
82464;SDS011;72087;53.178;8.738;2023-10-09T13:25:20;1.27;;;0.50;;
82464;SDS011;72087;53.178;8.738;2023-10-09T13:39:03;1.13;;;0.47;;
82464;SDS011;72087;53.178;8.738;2023-10-09T13:52:46;0.85;;;0.10;;
82464;SDS011;72087;53.178;8.738;2023-10-09T14:06:07;0.73;;;0.30;;
82464;SDS011;72087;53.178;8.738;2023-10-09T14:19:32;0.10;;;0.10;;
82464;SDS011;72087;53.178;8.738;2023-10-09T14:32:53;0.08;;;0.08;;
82464;SDS011;72087;53.178;8.738;2023-10-09T14:46:16;0.00;;;0.00;;
82464;SDS011;72087;53.178;8.738;2023-10-09T14:59:41;0.20;;;0.10;;
82464;SDS011;72087;53.178;8.738;2023-10-09T15:13:03;0.35;;;0.17;;
82464;SDS011;72087;53.178;8.738;2023-10-09T15:26:24;0.00;;;0.00;;
82464;SDS011;72087;53.178;8.738;2023-10-09T15:39:45;0.05;;;0.05;;
82464;SDS011;72087;53.178;8.738;2023-10-09T15:53:06;0.00;;;0.00;;
82464;SDS011;72087;53.178;8.738;2023-10-09T16:06:26;0.00;;;0.00;;
82464;SDS011;72087;53.178;8.738;2023-10-09T16:19:51;0.13;;;0.10;;
82464;SDS011;72087;53.178;8.738;2023-10-09T16:33:11;0.00;;;0.00;;
82464;SDS011;72087;53.178;8.738;2023-10-09T16:46:32;0.00;;;0.00;;
82464;SDS011;72087;53.178;8.738;2023-10-09T16:59:52;0.10;;;0.10;;
82464;SDS011;72087;53.178;8.738;2023-10-09T17:13:15;0.30;;;0.10;;
82464;SDS011;72087;53.178;8.738;2023-10-09T17:26:40;0.40;;;0.40;;
82464;SDS011;72087;53.178;8.738;2023-10-09T17:40:05;0.00;;;0.00;;
82464;SDS011;72087;53.178;8.738;2023-10-09T17:53:27;0.00;;;0.00;;
82464;SDS011;72087;53.178;8.738;2023-10-09T18:06:49;0.00;;;0.00;;
82464;SDS011;72087;53.178;8.738;2023-10-09T18:20:12;0.17;;;0.17;;
82464;SDS011;72087;53.178;8.738;2023-10-09T18:33:34;0.10;;;0.10;;
82464;SDS011;72087;53.178;8.738;2023-10-09T18:46:54;0.00;;;0.00;;
82464;SDS011;72087;53.178;8.738;2023-10-09T19:00:16;0.20;;;0.08;;
82464;SDS011;72087;53.178;8.738;2023-10-09T19:13:53;0.05;;;0.05;;
82464;SDS011;72087;53.178;8.738;2023-10-09T19:27:17;0.10;;;0.10;;
82464;SDS011;72087;53.178;8.738;2023-10-09T19:40:40;0.00;;;0.00;;
82464;SDS011;72087;53.178;8.738;2023-10-09T19:54:01;0.00;;;0.00;;
82464;SDS011;72087;53.178;8.738;2023-10-09T20:21:38;0.05;;;0.00;;
82464;SDS011;72087;53.178;8.738;2023-10-09T20:35:36;0.00;;;0.00;;
82464;SDS011;72087;53.178;8.738;2023-10-09T20:48:59;0.00;;;0.00;;
82464;SDS011;72087;53.178;8.738;2023-10-09T21:02:20;0.03;;;0.03;;
82464;SDS011;72087;53.178;8.738;2023-10-09T21:15:41;0.10;;;0.10;;
82464;SDS011;72087;53.178;8.738;2023-10-09T21:29:01;0.07;;;0.07;;
82464;SDS011;72087;53.178;8.738;2023-10-09T21:42:22;0.10;;;0.10;;
82464;SDS011;72087;53.178;8.738;2023-10-09T21:55:42;0.22;;;0.00;;
82464;SDS011;72087;53.178;8.738;2023-10-09T22:09:03;0.10;;;0.10;;
82464;SDS011;72087;53.178;8.738;2023-10-09T22:22:27;0.00;;;0.00;;
82464;SDS011;72087;53.178;8.738;2023-10-09T22:35:48;0.10;;;0.10;;
82464;SDS011;72087;53.178;8.738;2023-10-09T22:49:08;0.45;;;0.10;;
82464;SDS011;72087;53.178;8.738;2023-10-09T23:02:37;0.00;;;0.00;;
82464;SDS011;72087;53.178;8.738;2023-10-09T23:16:11;0.10;;;0.10;;
82464;SDS011;72087;53.178;8.738;2023-10-09T23:29:34;0.05;;;0.05;;
82464;SDS011;72087;53.178;8.738;2023-10-09T23:42:54;0.05;;;0.05;;
82464;SDS011;72087;53.178;8.738;2023-10-09T23:56:18;0.10;;;0.00;;
